Terminal Aerodrome Forecast
Issued by NWS

Home | Current Version | Previous Version | Text Only | Print | Product List | Glossary On
Versions: 1 2 3 4 5 6 7 8 9 10 11 12 13 14
060
FTUS42 TJSJ 252333
TAFNCM
TAF
TNCM 252333Z 2600/2624 08009KT P6SM VCTS BKN018CB BKN035
     FM261300 10012KT P6SM VCSH FEW018 SCT025
     FM262300 09010KT P6SM FEW018=

USA.gov is the U.S. government's official web portal to all federal, state and local government web resources and services.